createdAt,value
2023-03-06T00:02:03.877Z,96686.73
2023-03-06T00:04:33.757Z,96690.44
2023-03-06T00:07:04.647Z,96688.83
2023-03-06T00:09:35.712Z,96685.59
2023-03-06T00:12:07.656Z,96686.69
2023-03-06T00:14:39.103Z,96682.34
2023-03-06T00:17:10.168Z,96681.47
2023-03-06T00:19:41.674Z,96682.43
2023-03-06T00:22:14.024Z,96681.98
2023-03-06T00:24:45.870Z,96684.45
2023-03-06T00:27:16.942Z,96685.36
2023-03-06T00:29:49.272Z,96686.17
2023-03-06T00:32:20.313Z,96679.04
2023-03-06T00:34:51.124Z,96673.31
2023-03-06T00:37:22.870Z,96663.26
2023-03-06T00:39:53.895Z,96658.49
2023-03-06T00:42:25.200Z,96653.94
2023-03-06T00:44:56.316Z,96645.73
2023-03-06T00:47:27.292Z,96648.02
2023-03-06T00:49:58.144Z,96656.73
2023-03-06T00:52:29.184Z,96655.42
2023-03-06T00:55:00.354Z,96656.19
2023-03-06T00:57:31.358Z,96654.92
2023-03-06T01:00:02.215Z,96651.63
2023-03-06T01:02:35.474Z,96648.29
2023-03-06T01:05:07.977Z,96650.23
2023-03-06T01:07:39.107Z,96648.61
2023-03-06T01:10:12.662Z,96644.66
2023-03-06T01:12:43.866Z,96644.05
2023-03-06T01:15:16.034Z,96641.92
2023-03-06T01:17:47.323Z,96638.89
2023-03-06T01:20:19.942Z,96637.23
2023-03-06T01:22:50.917Z,96639.70
2023-03-06T01:25:22.199Z,96633.89
2023-03-06T01:27:53.170Z,96628.12
2023-03-06T01:30:24.400Z,96626.96
2023-03-06T01:32:54.141Z,96619.59
2023-03-06T01:35:25.262Z,96619.94
2023-03-06T01:37:56.104Z,96615.55
2023-03-06T01:40:27.193Z,96608.91
2023-03-06T01:42:58.175Z,96609.72
2023-03-06T01:46:03.942Z,96612.35
2023-03-06T01:48:35.208Z,96616.25
2023-03-06T01:51:06.580Z,96617.05
2023-03-06T01:53:38.019Z,96614.67
2023-03-06T01:56:10.196Z,96614.40
2023-03-06T01:58:41.448Z,96617.04
2023-03-06T02:01:11.130Z,96618.20
2023-03-06T02:03:43.923Z,96617.19
2023-03-06T02:06:19.703Z,96614.23
2023-03-06T02:08:52.943Z,96614.80
2023-03-06T02:11:26.213Z,96614.90
2023-03-06T02:13:57.786Z,96608.73
2023-03-06T02:16:28.289Z,96611.90
2023-03-06T02:19:03.155Z,96603.55
2023-03-06T02:21:37.415Z,96600.97
2023-03-06T02:24:23.800Z,96597.11
2023-03-06T02:26:56.377Z,96593.77
2023-03-06T02:29:30.525Z,96591.64
2023-03-06T02:32:01.480Z,96590.79
2023-03-06T02:34:56.040Z,96593.27
2023-03-06T02:37:29.310Z,96586.09
2023-03-06T02:40:12.343Z,96584.99
2023-03-06T02:42:49.047Z,96585.05
2023-03-06T02:45:27.022Z,96582.98
2023-03-06T02:47:58.019Z,96582.29
2023-03-06T02:50:29.102Z,96582.30
2023-03-06T02:53:00.222Z,96577.85
2023-03-06T02:55:31.297Z,96582.55
2023-03-06T02:58:02.542Z,96580.73
2023-03-06T03:00:35.056Z,96576.27
2023-03-06T03:03:07.168Z,96577.30
2023-03-06T03:05:38.273Z,96577.15
2023-03-06T03:08:09.819Z,96577.19
2023-03-06T03:10:40.915Z,96572.58
2023-03-06T03:13:13.109Z,96576.42
2023-03-06T03:15:44.753Z,96575.11
2023-03-06T03:18:14.154Z,96576.02
2023-03-06T03:20:45.982Z,96575.10
2023-03-06T03:23:19.921Z,96571.95
2023-03-06T03:25:51.130Z,96569.23
2023-03-06T03:28:22.175Z,96572.35
2023-03-06T03:30:53.290Z,96570.07
2023-03-06T03:33:24.397Z,96570.46
2023-03-06T03:36:00.451Z,96569.09
2023-03-06T03:38:32.739Z,96566.83
2023-03-06T03:41:05.260Z,96564.90
2023-03-06T03:43:36.439Z,96566.02
2023-03-06T03:46:08.021Z,96565.48
2023-03-06T03:48:39.067Z,96563.00
2023-03-06T03:51:12.250Z,96561.30
2023-03-06T03:53:43.815Z,96556.19
2023-03-06T03:56:15.603Z,96558.95
2023-03-06T03:58:46.965Z,96556.42
2023-03-06T04:01:17.943Z,96551.07
2023-03-06T04:03:48.934Z,96550.10
2023-03-06T04:06:20.395Z,96551.70
2023-03-06T04:08:49.883Z,96548.35
2023-03-06T04:11:20.856Z,96548.75
2023-03-06T04:13:52.112Z,96547.83
2023-03-06T04:16:23.193Z,96541.60
2023-03-06T04:18:54.251Z,96543.13
2023-03-06T04:21:25.233Z,96544.24
2023-03-06T04:23:56.262Z,96537.11
2023-03-06T04:26:27.592Z,96536.71
2023-03-06T04:28:58.739Z,96533.54
2023-03-06T04:31:29.681Z,96525.77
2023-03-06T04:34:00.772Z,96522.69
2023-03-06T04:36:34.146Z,96525.17
2023-03-06T04:39:05.474Z,96522.21
2023-03-06T04:41:36.591Z,96519.13
2023-03-06T04:44:08.394Z,96513.89
2023-03-06T04:46:39.773Z,96507.14
2023-03-06T04:49:10.875Z,96506.95
2023-03-06T04:51:42.034Z,96508.13
2023-03-06T04:54:13.011Z,96507.28
2023-03-06T04:56:44.058Z,96505.31
2023-03-06T04:59:15.061Z,96507.02
2023-03-06T05:01:46.037Z,96505.06
2023-03-06T05:04:17.199Z,96505.16
2023-03-06T05:06:48.221Z,96507.09
2023-03-06T05:09:19.234Z,96504.70
2023-03-06T05:11:50.213Z,96499.70
2023-03-06T05:14:21.847Z,96495.35
2023-03-06T05:16:52.780Z,96495.60
2023-03-06T05:19:23.799Z,96493.48
2023-03-06T05:21:54.915Z,96495.20
2023-03-06T05:24:26.272Z,96493.05
2023-03-06T05:26:57.345Z,96492.67
2023-03-06T05:29:28.948Z,96492.98
2023-03-06T05:32:00.158Z,96491.98
2023-03-06T05:34:31.273Z,96497.42
2023-03-06T05:37:02.345Z,96498.70
2023-03-06T05:39:33.437Z,96495.98
2023-03-06T05:42:04.545Z,96496.53
2023-03-06T05:44:36.631Z,96502.85
2023-03-06T05:47:08.377Z,96502.30
2023-03-06T05:49:37.794Z,96502.20
2023-03-06T05:52:10.239Z,96504.13
2023-03-06T05:54:41.202Z,96503.73
2023-03-06T05:57:12.320Z,96500.84
2023-03-06T05:59:43.350Z,96498.63
2023-03-06T06:02:13.049Z,96497.00
2023-03-06T06:04:44.200Z,96499.73
2023-03-06T06:07:17.705Z,96501.85
2023-03-06T06:09:49.152Z,96503.01
2023-03-06T06:12:20.162Z,96506.39
2023-03-06T06:14:51.314Z,96507.08
2023-03-06T06:17:22.438Z,96509.97
2023-03-06T06:19:53.634Z,96512.79
2023-03-06T06:22:24.733Z,96513.57
2023-03-06T06:24:55.785Z,96512.89
2023-03-06T06:27:27.069Z,96509.74
2023-03-06T06:29:58.199Z,96511.91
2023-03-06T06:32:29.617Z,96508.51
2023-03-06T06:35:01.521Z,96509.55
2023-03-06T06:37:32.765Z,96514.10
2023-03-06T06:40:08.054Z,96513.58
2023-03-06T06:42:40.309Z,96511.83
2023-03-06T06:45:13.672Z,96511.77
2023-03-06T06:47:44.878Z,96509.88
2023-03-06T06:50:19.632Z,96512.86
2023-03-06T06:52:50.710Z,96513.14
2023-03-06T06:55:21.855Z,96511.30
2023-03-06T06:57:52.791Z,96513.66
2023-03-06T07:00:25.713Z,96511.63
2023-03-06T07:02:56.825Z,96507.02
2023-03-06T07:05:28.702Z,96509.17
2023-03-06T07:07:59.837Z,96504.15
2023-03-06T07:10:33.970Z,96503.92
2023-03-06T07:13:04.957Z,96501.77
2023-03-06T07:15:35.803Z,96504.20
2023-03-06T07:18:06.916Z,96499.84
2023-03-06T07:20:37.987Z,96501.08
2023-03-06T07:23:12.487Z,96497.70
2023-03-06T07:25:43.743Z,96499.87
2023-03-06T07:28:15.147Z,96499.58
2023-03-06T07:30:46.983Z,96499.70
2023-03-06T07:33:18.723Z,96499.68
2023-03-06T07:35:50.073Z,96495.83
2023-03-06T07:38:21.218Z,96492.98
2023-03-06T07:40:52.848Z,96493.27
2023-03-06T07:43:23.857Z,96494.95
2023-03-06T07:46:00.040Z,96493.48
2023-03-06T07:48:31.843Z,96494.42
2023-03-06T07:51:04.836Z,96489.11
2023-03-06T07:53:36.781Z,96491.65
2023-03-06T07:56:11.134Z,96489.57
2023-03-06T07:58:44.922Z,96489.05
2023-03-06T08:01:17.788Z,96488.52
2023-03-06T08:03:50.401Z,96493.23
2023-03-06T08:06:23.910Z,96490.30
2023-03-06T08:08:56.565Z,96490.63
2023-03-06T08:11:30.023Z,96487.77
2023-03-06T08:14:01.381Z,96485.02
2023-03-06T08:16:31.457Z,96485.97
2023-03-06T08:19:02.877Z,96486.77
2023-03-06T08:21:33.859Z,96484.63
2023-03-06T08:24:06.263Z,96481.83
2023-03-06T08:26:37.755Z,96480.38
2023-03-06T08:29:09.144Z,96480.43
2023-03-06T08:31:41.510Z,96480.90
2023-03-06T08:34:14.971Z,96483.95
2023-03-06T08:36:46.101Z,96486.08
2023-03-06T08:39:17.156Z,96481.94
2023-03-06T08:41:48.597Z,96484.02
2023-03-06T08:44:19.574Z,96479.67
2023-03-06T08:46:50.988Z,96481.42
2023-03-06T08:49:22.452Z,96477.08
2023-03-06T08:51:51.878Z,96475.13
2023-03-06T08:54:22.974Z,96475.06
2023-03-06T08:56:54.299Z,96475.48
2023-03-06T08:59:25.920Z,96472.91
2023-03-06T09:01:57.175Z,96475.07
2023-03-06T09:04:26.782Z,96471.42
2023-03-06T09:06:57.589Z,96472.87
2023-03-06T09:09:28.782Z,96472.85
2023-03-06T09:11:59.845Z,96473.25
2023-03-06T09:14:32.051Z,96470.52
2023-03-06T09:17:02.955Z,96467.77
2023-03-06T09:19:32.637Z,96466.55
2023-03-06T09:22:03.731Z,96464.36
2023-03-06T09:24:34.697Z,96462.67
2023-03-06T09:27:05.958Z,96464.61
2023-03-06T09:29:36.979Z,96465.15
2023-03-06T09:32:11.811Z,96469.23
2023-03-06T09:34:43.196Z,96469.38
2023-03-06T09:37:16.290Z,96465.66
2023-03-06T09:39:47.550Z,96460.91
2023-03-06T09:42:21.294Z,96460.30
2023-03-06T09:44:55.826Z,96455.90
2023-03-06T09:47:42.686Z,96455.63
2023-03-06T09:50:39.893Z,96452.45
2023-03-06T09:53:43.448Z,96451.61
2023-03-06T09:56:18.918Z,96455.98
2023-03-06T09:58:54.937Z,96458.11
2023-03-06T10:01:28.924Z,96454.55
2023-03-06T10:04:11.188Z,96448.35
2023-03-06T10:06:49.571Z,96448.20
2023-03-06T10:09:25.611Z,96446.45
2023-03-06T10:12:00.467Z,96448.92
2023-03-06T10:14:39.118Z,96442.76
2023-03-06T10:17:17.181Z,96441.16
2023-03-06T10:19:49.463Z,96437.38
2023-03-06T10:22:29.312Z,96434.02
2023-03-06T10:25:10.630Z,96429.23
2023-03-06T10:27:48.895Z,96426.46
2023-03-06T10:30:34.929Z,96422.10
2023-03-06T10:33:16.802Z,96421.67
2023-03-06T10:35:51.665Z,96415.94
2023-03-06T10:38:25.126Z,96413.44
2023-03-06T10:41:08.238Z,96409.98
2023-03-06T10:43:42.696Z,96413.55
2023-03-06T10:46:15.722Z,96416.96
2023-03-06T10:49:00.849Z,96412.29
2023-03-06T10:51:34.083Z,96412.13
2023-03-06T10:54:20.757Z,96415.23
2023-03-06T10:56:51.775Z,96415.46
2023-03-06T10:59:25.444Z,96415.92
2023-03-06T11:01:59.138Z,96408.98
2023-03-06T11:04:32.692Z,96408.11
2023-03-06T11:07:15.738Z,96405.11
2023-03-06T11:10:00.284Z,96405.21
2023-03-06T11:12:33.556Z,96407.00
2023-03-06T11:15:22.499Z,96406.32
2023-03-06T11:18:02.004Z,96408.96
2023-03-06T11:20:50.439Z,96409.41
2023-03-06T11:23:23.206Z,96407.96
2023-03-06T11:25:58.648Z,96405.45
2023-03-06T11:28:32.785Z,96401.42
2023-03-06T11:31:07.175Z,96400.83
2023-03-06T11:33:45.626Z,96396.11
2023-03-06T11:36:24.032Z,96391.88
2023-03-06T11:38:56.125Z,96387.95
2023-03-06T11:41:36.619Z,96384.83
2023-03-06T11:44:14.317Z,96378.12
2023-03-06T11:46:50.796Z,96374.30
2023-03-06T11:49:28.706Z,96367.91
2023-03-06T11:52:07.655Z,96359.96
2023-03-06T11:54:38.822Z,96354.20
2023-03-06T11:57:16.699Z,96347.61
2023-03-06T12:00:04.617Z,96342.65
2023-03-06T12:02:49.511Z,96343.15
2023-03-06T12:05:34.675Z,96340.80
2023-03-06T12:08:22.430Z,96341.45
2023-03-06T12:10:58.829Z,96337.81
2023-03-06T12:13:46.350Z,96339.02
2023-03-06T12:16:33.633Z,96338.87
2023-03-06T12:19:16.333Z,96337.02
2023-03-06T12:21:57.153Z,96338.52
2023-03-06T12:24:56.330Z,96331.92
2023-03-06T12:27:34.110Z,96327.80
2023-03-06T12:30:26.482Z,96325.42
2023-03-06T12:33:06.182Z,96328.55
2023-03-06T12:35:58.015Z,96328.34
2023-03-06T12:38:53.202Z,96329.18
2023-03-06T12:41:36.487Z,96325.38
2023-03-06T12:44:21.316Z,96327.09
2023-03-06T12:46:58.971Z,96328.75
2023-03-06T12:49:34.597Z,96323.30
2023-03-06T12:52:08.233Z,96331.04
2023-03-06T12:54:42.446Z,96333.68
2023-03-06T12:57:17.001Z,96334.92
2023-03-06T12:59:49.169Z,96331.41
2023-03-06T13:03:00.112Z,96331.98
2023-03-06T13:05:43.851Z,96334.00
2023-03-06T13:08:35.947Z,96333.05
2023-03-06T13:11:24.236Z,96330.40
2023-03-06T13:13:56.030Z,96327.89
2023-03-06T13:16:32.572Z,96328.51
2023-03-06T13:19:12.696Z,96322.91
2023-03-06T13:22:14.586Z,96323.16
2023-03-06T13:24:45.735Z,96321.50
2023-03-06T13:28:01.042Z,96320.38
2023-03-06T13:30:46.039Z,96318.70
2023-03-06T13:33:50.247Z,96317.65
2023-03-06T13:36:27.450Z,96322.31
2023-03-06T13:39:03.409Z,96317.48
2023-03-06T13:41:59.676Z,96315.56
2023-03-06T13:44:53.127Z,96316.56
2023-03-06T13:48:09.740Z,96314.93
2023-03-06T13:50:43.040Z,96309.35
2023-03-06T13:53:51.980Z,96307.08
2023-03-06T13:56:49.062Z,96302.90
2023-03-06T13:59:35.049Z,96297.58
2023-03-06T14:02:23.171Z,96296.34
2023-03-06T14:04:59.981Z,96296.04
2023-03-06T14:07:33.505Z,96291.55
2023-03-06T14:10:27.988Z,96293.52
2023-03-06T14:13:15.433Z,96293.70
2023-03-06T14:15:49.286Z,96297.98
2023-03-06T14:18:23.809Z,96290.34
2023-03-06T14:20:58.868Z,96290.92
2023-03-06T14:23:35.343Z,96289.48
2023-03-06T14:26:15.572Z,96292.30
2023-03-06T14:28:56.047Z,96290.52
2023-03-06T14:31:29.813Z,96290.41
2023-03-06T14:34:02.457Z,96284.98
2023-03-06T14:36:35.762Z,96290.93
2023-03-06T14:39:13.291Z,96287.21
2023-03-06T14:41:44.637Z,96284.21
2023-03-06T14:44:21.750Z,96282.24
2023-03-06T14:46:55.600Z,96282.09
2023-03-06T14:49:27.575Z,96278.42
2023-03-06T14:52:01.808Z,96275.20
2023-03-06T14:54:36.953Z,96273.90
2023-03-06T14:57:12.740Z,96276.08
2023-03-06T14:59:47.915Z,96277.61
2023-03-06T15:02:23.609Z,96277.17
2023-03-06T15:04:58.502Z,96274.48
2023-03-06T15:07:33.694Z,96270.98
2023-03-06T15:10:10.488Z,96272.55
2023-03-06T15:12:41.491Z,96272.78
2023-03-06T15:15:31.666Z,96273.42
2023-03-06T15:18:03.345Z,96272.48
2023-03-06T15:20:45.655Z,96272.91
2023-03-06T15:23:25.851Z,96270.96
2023-03-06T15:26:01.876Z,96277.29
2023-03-06T15:28:38.901Z,96270.59
2023-03-06T15:31:22.732Z,96276.81
2023-03-06T15:34:12.455Z,96276.92
2023-03-06T15:36:45.196Z,96278.29
2023-03-06T15:39:32.666Z,96281.31
2023-03-06T15:42:09.086Z,96278.10
2023-03-06T15:44:40.482Z,96278.77
2023-03-06T15:47:13.618Z,96277.63
2023-03-06T15:49:44.914Z,96275.02
2023-03-06T15:52:16.445Z,96273.43
2023-03-06T15:54:47.556Z,96274.79
2023-03-06T15:57:23.697Z,96277.73
2023-03-06T15:59:56.294Z,96281.71
2023-03-06T16:02:27.489Z,96285.60
2023-03-06T16:05:02.418Z,96282.42
2023-03-06T16:07:33.568Z,96279.09
2023-03-06T16:10:04.819Z,96281.83
2023-03-06T16:12:37.120Z,96280.88
2023-03-06T16:15:17.120Z,96282.73
2023-03-06T16:17:49.500Z,96280.34
2023-03-06T16:20:24.265Z,96279.73
2023-03-06T16:22:56.195Z,96278.91
2023-03-06T16:25:29.170Z,96280.94
2023-03-06T16:28:01.343Z,96282.46
2023-03-06T16:30:35.510Z,96281.12
2023-03-06T16:33:07.449Z,96283.30
2023-03-06T16:35:38.512Z,96281.16
2023-03-06T16:38:11.095Z,96282.38
2023-03-06T16:40:42.618Z,96281.07
2023-03-06T16:43:16.228Z,96279.70
2023-03-06T16:45:47.511Z,96281.51
2023-03-06T16:48:19.074Z,96280.13
2023-03-06T16:50:51.179Z,96281.26
2023-03-06T16:53:20.968Z,96276.27
2023-03-06T16:55:52.122Z,96276.23
2023-03-06T16:58:23.393Z,96275.29
2023-03-06T17:00:54.650Z,96274.17
2023-03-06T17:03:25.677Z,96278.61
2023-03-06T17:05:56.853Z,96280.66
2023-03-06T17:08:27.939Z,96279.48
2023-03-06T17:10:57.749Z,96282.85
2023-03-06T17:13:31.819Z,96283.27
2023-03-06T17:16:03.310Z,96279.22
2023-03-06T17:18:35.132Z,96284.86
2023-03-06T17:21:08.505Z,96282.73
2023-03-06T17:23:40.194Z,96282.61
2023-03-06T17:26:14.286Z,96286.05
2023-03-06T17:28:45.761Z,96286.79
2023-03-06T17:31:19.434Z,96296.73
2023-03-06T17:33:51.513Z,96293.46
2023-03-06T17:36:22.766Z,96296.12
2023-03-06T17:38:55.317Z,96301.92
2023-03-06T17:41:26.600Z,96305.27
2023-03-06T17:43:58.948Z,96303.82
2023-03-06T17:46:31.885Z,96300.88
2023-03-06T17:49:02.945Z,96302.97
2023-03-06T17:51:33.749Z,96303.42
2023-03-06T17:54:04.943Z,96300.82
2023-03-06T17:56:37.989Z,96304.89
2023-03-06T17:59:09.187Z,96307.52
2023-03-06T18:01:40.229Z,96306.89
2023-03-06T18:04:11.647Z,96308.88
2023-03-06T18:06:41.070Z,96310.83
2023-03-06T18:09:12.402Z,96317.20
2023-03-06T18:11:43.657Z,96315.10
2023-03-06T18:14:14.936Z,96316.66
2023-03-06T18:16:48.046Z,96314.91
2023-03-06T18:19:19.430Z,96311.04
2023-03-06T18:21:49.014Z,96309.45
2023-03-06T18:24:20.001Z,96315.84
2023-03-06T18:26:51.005Z,96314.08
2023-03-06T18:29:22.031Z,96313.73
2023-03-06T18:31:53.452Z,96316.62
2023-03-06T18:34:24.594Z,96315.14
2023-03-06T18:36:55.594Z,96315.50
2023-03-06T18:39:26.431Z,96314.33
2023-03-06T18:41:57.706Z,96311.08
2023-03-06T18:44:29.657Z,96315.13
2023-03-06T18:47:01.213Z,96315.64
2023-03-06T18:49:33.879Z,96317.49
2023-03-06T18:52:05.720Z,96320.74
2023-03-06T18:54:36.971Z,96320.55
2023-03-06T18:57:06.612Z,96322.01
2023-03-06T18:59:37.815Z,96318.95
2023-03-06T19:02:07.942Z,96319.29
2023-03-06T19:04:39.414Z,96317.30
2023-03-06T19:07:13.756Z,96318.59
2023-03-06T19:09:48.727Z,96321.84
2023-03-06T19:12:19.858Z,96317.55
2023-03-06T19:14:51.326Z,96317.91
2023-03-06T19:17:24.895Z,96318.48
2023-03-06T19:19:56.309Z,96320.04
2023-03-06T19:22:25.830Z,96320.41
2023-03-06T19:24:58.089Z,96323.13
2023-03-06T19:27:30.190Z,96321.61
2023-03-06T19:30:01.242Z,96320.33
2023-03-06T19:32:33.552Z,96320.18
2023-03-06T19:35:05.931Z,96324.93
2023-03-06T19:37:37.276Z,96323.73
2023-03-06T19:40:07.566Z,96318.23
2023-03-06T19:42:38.918Z,96316.55
2023-03-06T19:45:11.629Z,96314.08
2023-03-06T19:47:42.868Z,96318.50
2023-03-06T19:50:14.885Z,96316.56
2023-03-06T19:52:45.715Z,96315.08
2023-03-06T19:55:17.812Z,96316.98
2023-03-06T19:57:49.181Z,96321.18
2023-03-06T20:00:19.283Z,96315.54
2023-03-06T20:02:50.525Z,96319.49
2023-03-06T20:05:22.089Z,96316.71
2023-03-06T20:07:53.647Z,96322.79
2023-03-06T20:10:23.471Z,96321.23
2023-03-06T20:12:54.505Z,96320.26
2023-03-06T20:15:28.034Z,96324.80
2023-03-06T20:17:59.398Z,96320.77
2023-03-06T20:20:30.892Z,96316.61
2023-03-06T20:23:04.704Z,96323.56
2023-03-06T20:25:37.640Z,96322.40
2023-03-06T20:28:09.106Z,96326.16
2023-03-06T20:30:40.825Z,96330.45
2023-03-06T20:33:11.912Z,96330.52
2023-03-06T20:35:44.221Z,96331.85
2023-03-06T20:38:15.495Z,96335.88
2023-03-06T20:40:46.880Z,96337.38
2023-03-06T20:43:17.711Z,96339.56
2023-03-06T20:46:00.672Z,96340.92
2023-03-06T20:48:32.062Z,96339.84
2023-03-06T20:51:05.902Z,96335.46
2023-03-06T20:53:37.247Z,96335.91
2023-03-06T20:56:11.907Z,96336.05
2023-03-06T20:58:42.984Z,96333.56
2023-03-06T21:01:20.605Z,96332.89
2023-03-06T21:03:52.392Z,96328.42
2023-03-06T21:06:24.322Z,96331.62
2023-03-06T21:08:55.557Z,96332.23
2023-03-06T21:11:27.506Z,96331.02
2023-03-06T21:14:00.932Z,96329.66
2023-03-06T21:16:32.369Z,96328.50
2023-03-06T21:19:01.949Z,96329.04
2023-03-06T21:21:36.108Z,96326.67
2023-03-06T21:24:07.574Z,96324.98
2023-03-06T21:26:38.652Z,96322.19
2023-03-06T21:29:09.964Z,96326.23
2023-03-06T21:31:41.312Z,96328.15
2023-03-06T21:34:12.598Z,96325.43
2023-03-06T21:36:43.617Z,96326.59
2023-03-06T21:39:14.798Z,96327.75
2023-03-06T21:41:45.886Z,96326.94
2023-03-06T21:44:17.120Z,96325.46
2023-03-06T21:46:48.313Z,96325.52
2023-03-06T21:49:19.538Z,96323.46
2023-03-06T21:51:50.609Z,96319.85
2023-03-06T21:54:22.019Z,96316.30
2023-03-06T21:56:51.420Z,96319.44
2023-03-06T21:59:22.683Z,96317.58
2023-03-06T22:01:53.985Z,96315.48
2023-03-06T22:04:25.126Z,96316.50
2023-03-06T22:06:56.294Z,96311.11
2023-03-06T22:09:27.609Z,96313.48
2023-03-06T22:11:58.660Z,96311.77
2023-03-06T22:14:29.632Z,96312.55
2023-03-06T22:17:01.468Z,96308.16
2023-03-06T22:19:32.914Z,96309.44
2023-03-06T22:22:03.772Z,96307.67
2023-03-06T22:24:35.184Z,96308.14
2023-03-06T22:27:07.748Z,96306.62
2023-03-06T22:29:39.154Z,96307.33
2023-03-06T22:32:10.924Z,96308.30
2023-03-06T22:34:42.024Z,96311.04
2023-03-06T22:37:13.268Z,96312.96
2023-03-06T22:39:44.832Z,96311.69
2023-03-06T22:42:16.192Z,96312.65
2023-03-06T22:44:47.532Z,96314.13
2023-03-06T22:47:16.911Z,96310.73
2023-03-06T22:49:47.995Z,96313.17
2023-03-06T22:52:19.684Z,96310.96
2023-03-06T22:54:50.737Z,96308.19
2023-03-06T22:57:21.846Z,96307.58
2023-03-06T22:59:53.068Z,96306.66
2023-03-06T23:02:24.103Z,96305.04
2023-03-06T23:04:55.334Z,96303.89
2023-03-06T23:07:26.514Z,96306.85
2023-03-06T23:09:57.688Z,96304.94
2023-03-06T23:12:28.768Z,96309.41
2023-03-06T23:14:59.991Z,96301.95
2023-03-06T23:17:30.991Z,96299.90
2023-03-06T23:20:05.035Z,96302.90
2023-03-06T23:22:36.083Z,96302.36
2023-03-06T23:25:08.285Z,96299.51
2023-03-06T23:27:39.734Z,96301.85
2023-03-06T23:30:13.120Z,96302.32
2023-03-06T23:32:45.926Z,96302.31
2023-03-06T23:35:17.345Z,96303.63
2023-03-06T23:37:48.406Z,96304.77
2023-03-06T23:40:19.816Z,96302.33
2023-03-06T23:42:49.377Z,96301.23
2023-03-06T23:45:20.726Z,96298.23
2023-03-06T23:47:51.930Z,96293.77
2023-03-06T23:50:24.361Z,96293.29
2023-03-06T23:52:56.359Z,96294.94
2023-03-06T23:55:27.264Z,96297.73
2023-03-06T23:57:58.293Z,96296.71
